Time;durP1;ratioP1;P1;durP2;ratioP2;P2;SDS_P1;SDS_P2;PMS_P1;PMS_P2;Temp;Humidity;BMP_temperature;BMP_pressure;BME280_temperature;BME280_humidity;BME280_pressure;Samples;Min_cycle;Max_cycle;Signal;HPM_P1;HPM_P2
2023/10/07 00:00:47;;;;;;;9.20;3.07;;;13.80;68.90;;;;;;4801815;29;20150;-87
2023/10/07 00:03:14;;;;;;;9.48;2.67;;;13.70;69.00;;;;;;4818246;29;20046;-88
2023/10/07 00:05:42;;;;;;;8.15;2.35;;;13.70;68.80;;;;;;4797883;29;20057;-87
2023/10/07 00:08:13;;;;;;;8.73;2.47;;;13.60;69.00;;;;;;4818414;29;20038;-87
2023/10/07 00:10:40;;;;;;;6.68;2.35;;;13.60;69.00;;;;;;4805910;29;20505;-88
2023/10/07 00:13:14;;;;;;;11.50;3.20;;;13.60;69.10;;;;;;4815055;29;20505;-88
2023/10/07 00:15:46;;;;;;;9.27;3.00;;;13.60;69.10;;;;;;4799053;29;20136;-88
2023/10/07 00:18:15;;;;;;;9.77;3.33;;;13.60;69.50;;;;;;4800863;29;20062;-88
2023/10/07 00:20:56;;;;;;;11.10;3.20;;;13.60;69.30;;;;;;4802069;29;20460;-88
2023/10/07 00:23:28;;;;;;;11.85;3.72;;;13.60;69.20;;;;;;4821239;29;20050;-87
2023/10/07 00:25:57;;;;;;;11.33;3.20;;;13.60;69.20;;;;;;4805943;29;20129;-88
2023/10/07 00:28:32;;;;;;;10.48;3.15;;;13.60;69.10;;;;;;4829976;29;20037;-87
2023/10/07 00:31:03;;;;;;;8.30;3.10;;;13.60;69.20;;;;;;4811585;29;20141;-87
2023/10/07 00:33:45;;;;;;;13.95;4.43;;;13.60;69.40;;;;;;4815891;29;20050;-87
2023/10/07 00:36:15;;;;;;;14.32;4.50;;;13.60;69.40;;;;;;4826313;29;20050;-88
2023/10/07 00:38:45;;;;;;;11.20;3.83;;;13.70;69.30;;;;;;4811544;29;20107;-88
2023/10/07 00:41:18;;;;;;;11.68;3.72;;;13.70;69.70;;;;;;4819346;29;20074;-88
2023/10/07 00:43:46;;;;;;;14.32;4.53;;;13.70;69.70;;;;;;4820461;29;20038;-88
2023/10/07 00:46:28;;;;;;;8.88;3.22;;;13.70;69.40;;;;;;4829791;29;20048;-88
2023/10/07 00:49:09;;;;;;;8.98;2.70;;;13.60;69.30;;;;;;4814939;29;20133;-88
2023/10/07 00:51:42;;;;;;;9.97;3.27;;;13.60;69.40;;;;;;4814617;29;20106;-88
2023/10/07 00:54:17;;;;;;;8.40;3.50;;;13.60;69.30;;;;;;4814650;29;20110;-88
2023/10/07 00:56:52;;;;;;;11.05;3.15;;;13.60;69.40;;;;;;4823252;29;20525;-87
2023/10/07 00:59:20;;;;;;;10.00;2.78;;;13.60;69.30;;;;;;4817632;29;20137;-87
2023/10/07 01:01:50;;;;;;;10.23;3.17;;;13.60;69.30;;;;;;4814037;29;20042;-88
2023/10/07 01:04:18;;;;;;;9.77;2.40;;;13.70;69.50;;;;;;4814804;29;20098;-88
2023/10/07 01:06:46;;;;;;;8.43;2.38;;;13.70;69.10;;;;;;4813869;29;20074;-88
2023/10/07 01:09:22;;;;;;;10.32;3.20;;;13.60;69.00;;;;;;4814490;29;20045;-88
2023/10/07 01:11:58;;;;;;;10.38;3.20;;;13.50;69.10;;;;;;4814086;29;20057;-88
2023/10/07 01:14:29;;;;;;;11.07;3.95;;;13.60;69.10;;;;;;4814065;29;20133;-88
2023/10/07 01:16:56;;;;;;;9.53;3.10;;;13.60;69.30;;;;;;4813959;29;20404;-88
2023/10/07 01:22:09;;;;;;;11.18;3.20;;;13.60;69.00;;;;;;4828394;29;20050;-88
2023/10/07 01:27:29;;;;;;;8.90;3.38;;;13.50;69.00;;;;;;4828843;29;20058;-87
2023/10/07 01:29:59;;;;;;;10.43;3.37;;;13.50;69.30;;;;;;4820509;29;20046;-88
2023/10/07 01:32:33;;;;;;;15.32;3.92;;;13.50;69.20;;;;;;4827053;29;20049;-87
2023/10/07 01:35:11;;;;;;;11.63;3.70;;;13.60;69.10;;;;;;4813591;29;20102;-87
2023/10/07 01:37:43;;;;;;;10.57;3.50;;;13.70;69.20;;;;;;4813614;29;20129;-88
2023/10/07 01:40:16;;;;;;;10.60;2.95;;;13.70;69.20;;;;;;4814028;29;20515;-88
2023/10/07 01:42:44;;;;;;;7.60;2.63;;;13.60;68.80;;;;;;4828132;29;20053;-87
2023/10/07 01:45:34;;;;;;;9.82;3.08;;;13.70;68.60;;;;;;4813556;29;20042;-87
2023/10/07 01:48:07;;;;;;;9.70;3.13;;;13.70;68.70;;;;;;4823522;29;20042;-88
2023/10/07 01:50:40;;;;;;;9.05;2.90;;;13.80;68.70;;;;;;4813346;29;20458;-88
2023/10/07 01:53:08;;;;;;;10.35;3.40;;;13.80;68.90;;;;;;4813042;29;20046;-88
2023/10/07 01:55:42;;;;;;;11.77;4.00;;;13.80;69.20;;;;;;4813981;29;20046;-88
2023/10/07 01:58:14;;;;;;;14.43;3.60;;;13.90;69.00;;;;;;4827825;29;20046;-87
2023/10/07 02:00:46;;;;;;;10.30;3.50;;;13.90;68.90;;;;;;4826339;29;20125;-87
2023/10/07 02:03:16;;;;;;;11.63;3.95;;;13.80;69.30;;;;;;4809986;29;20052;-87
2023/10/07 02:05:48;;;;;;;13.10;3.97;;;13.70;69.30;;;;;;4813150;29;20492;-88
2023/10/07 02:08:22;;;;;;;16.33;4.10;;;13.70;69.30;;;;;;4812958;29;20137;-88
2023/10/07 02:10:58;;;;;;;13.05;4.20;;;13.70;69.30;;;;;;4813185;29;20085;-88
2023/10/07 02:13:29;;;;;;;14.55;4.40;;;13.80;69.30;;;;;;4812574;29;20050;-87
2023/10/07 02:15:57;;;;;;;13.75;4.97;;;13.70;69.00;;;;;;4816562;29;20046;-88
2023/10/07 02:18:27;;;;;;;11.52;4.25;;;13.80;69.00;;;;;;4814633;29;20557;-88
2023/10/07 02:21:07;;;;;;;18.03;5.17;;;13.80;69.20;;;;;;4822679;29;20046;-87
2023/10/07 02:23:40;;;;;;;20.30;4.93;;;13.80;69.30;;;;;;4812667;29;20103;-87
2023/10/07 02:26:32;;;;;;;16.17;4.47;;;13.80;69.50;;;;;;4822503;29;20049;-88
2023/10/07 02:29:04;;;;;;;13.35;4.53;;;13.70;69.40;;;;;;4827675;29;20057;-88
2023/10/07 02:31:41;;;;;;;14.20;4.57;;;13.70;69.20;;;;;;4826878;29;20472;-87
2023/10/07 02:34:21;;;;;;;13.83;4.23;;;13.70;69.30;;;;;;4812806;29;20095;-88
2023/10/07 02:36:52;;;;;;;10.00;3.20;;;13.70;69.10;;;;;;4811236;29;20576;-87
2023/10/07 02:39:19;;;;;;;11.77;3.60;;;13.80;68.50;;;;;;4824931;29;20532;-87
2023/10/07 02:41:46;;;;;;;11.65;3.10;;;13.70;68.40;;;;;;4812518;29;20077;-88
2023/10/07 02:44:27;;;;;;;9.02;3.15;;;13.60;68.30;;;;;;4812510;29;20122;-87
2023/10/07 02:46:56;;;;;;;11.60;3.00;;;13.70;68.30;;;;;;4802617;29;20046;-87
2023/10/07 02:49:26;;;;;;;10.02;3.08;;;13.60;68.50;;;;;;4810912;29;20050;-87
2023/10/07 02:51:56;;;;;;;9.82;2.95;;;13.70;68.60;;;;;;4812387;29;20058;-88
2023/10/07 02:54:32;;;;;;;12.55;3.10;;;13.60;68.60;;;;;;4812736;29;20071;-88
2023/10/07 02:57:09;;;;;;;10.30;3.22;;;13.70;68.60;;;;;;4812474;29;20052;-89
2023/10/07 02:59:50;;;;;;;9.97;2.97;;;13.70;68.60;;;;;;4812850;29;20397;-88
2023/10/07 03:04:58;;;;;;;9.38;3.00;;;13.60;68.20;;;;;;4827400;29;20405;-88
2023/10/07 03:07:26;;;;;;;10.80;3.22;;;13.60;68.40;;;;;;4826668;29;20064;-87
2023/10/07 03:10:05;;;;;;;8.85;3.08;;;13.60;68.80;;;;;;4812187;29;20052;-88
2023/10/07 03:12:36;;;;;;;11.03;3.20;;;13.70;68.00;;;;;;4812128;29;20054;-88
2023/10/07 03:15:20;;;;;;;15.55;4.40;;;13.70;68.20;;;;;;4808454;29;20157;-88
2023/10/07 03:17:49;;;;;;;14.00;3.80;;;13.70;68.70;;;;;;4812034;29;20045;-88
2023/10/07 03:28:30;;;;;;;16.95;4.78;;;13.80;68.80;;;;;;4827133;29;20045;-88
2023/10/07 03:30:57;;;;;;;16.52;4.78;;;13.90;68.70;;;;;;4827100;29;20053;-87
2023/10/07 03:33:44;;;;;;;24.90;5.18;;;14.00;68.60;;;;;;4811951;29;20456;-88
2023/10/07 03:41:41;;;;;;;13.82;3.72;;;13.80;69.10;;;;;;4825421;29;20050;-88
2023/10/07 03:44:08;;;;;;;14.23;3.97;;;13.80;68.80;;;;;;4812115;29;20105;-88
2023/10/07 03:46:36;;;;;;;14.95;3.88;;;13.80;68.80;;;;;;4811718;29;20416;-88
2023/10/07 03:49:06;;;;;;;19.23;4.28;;;13.80;68.80;;;;;;4811824;29;20404;-88
2023/10/07 03:51:35;;;;;;;13.97;3.37;;;13.70;69.50;;;;;;4811786;29;20052;-87
2023/10/07 03:54:24;;;;;;;12.63;4.18;;;13.60;69.60;;;;;;4810609;29;20054;-88
2023/10/07 03:56:51;;;;;;;10.20;3.10;;;13.60;69.80;;;;;;4810665;29;20057;-87
2023/10/07 03:59:18;;;;;;;11.77;3.30;;;13.50;69.50;;;;;;4811375;29;20050;-87
2023/10/07 04:01:45;;;;;;;10.32;3.70;;;13.60;69.50;;;;;;4808739;29;20441;-87
2023/10/07 04:04:13;;;;;;;12.37;4.70;;;13.60;69.60;;;;;;4811517;29;20077;-87
2023/10/07 04:06:41;;;;;;;13.45;3.70;;;13.50;69.70;;;;;;4809207;29;20569;-87
2023/10/07 04:09:09;;;;;;;15.13;4.22;;;13.50;69.90;;;;;;4826420;29;20050;-88
2023/10/07 04:11:39;;;;;;;12.88;3.13;;;13.50;69.90;;;;;;4811752;29;20436;-88
2023/10/07 04:14:19;;;;;;;11.20;3.72;;;13.40;70.20;;;;;;4811189;29;20137;-87
2023/10/07 04:16:50;;;;;;;16.00;4.10;;;13.40;70.40;;;;;;4820250;29;20057;-87
2023/10/07 04:21:50;;;;;;;14.65;4.60;;;13.30;70.50;;;;;;4829528;29;20052;-87
2023/10/07 04:24:18;;;;;;;10.80;3.75;;;13.30;70.50;;;;;;4814976;29;20520;-87
2023/10/07 04:27:03;;;;;;;13.98;4.25;;;13.40;70.40;;;;;;4814879;29;20058;-87
2023/10/07 04:29:31;;;;;;;11.40;3.40;;;13.30;70.40;;;;;;4829661;29;20077;-87
2023/10/07 04:32:12;;;;;;;11.05;3.42;;;13.30;70.40;;;;;;4815045;29;20046;-87
2023/10/07 04:37:38;;;;;;;13.27;4.70;;;13.30;70.40;;;;;;4827993;29;20589;-88
2023/10/07 04:42:59;;;;;;;21.07;5.20;;;13.40;70.60;;;;;;4829515;29;20098;-88
2023/10/07 04:45:35;;;;;;;20.08;4.20;;;13.40;70.50;;;;;;4829108;29;20050;-88
2023/10/07 04:48:26;;;;;;;15.30;3.70;;;13.30;70.70;;;;;;4822995;29;20066;-88
2023/10/07 04:51:07;;;;;;;11.35;3.70;;;13.30;70.70;;;;;;4814679;29;20054;-88
2023/10/07 04:53:40;;;;;;;11.73;3.70;;;13.30;70.60;;;;;;4814144;29;20106;-88
2023/10/07 04:56:08;;;;;;;12.30;3.63;;;13.30;70.80;;;;;;4809169;29;20128;-86
2023/10/07 04:58:40;;;;;;;12.13;3.60;;;13.20;70.70;;;;;;4814026;29;20113;-88
2023/10/07 05:01:30;;;;;;;11.07;3.78;;;13.10;70.70;;;;;;4814308;29;20066;-88
2023/10/07 05:04:04;;;;;;;14.25;4.63;;;13.10;70.80;;;;;;4820696;29;20467;-88
2023/10/07 05:06:35;;;;;;;9.73;3.22;;;13.10;70.40;;;;;;4828412;29;20140;-88
2023/10/07 05:09:09;;;;;;;10.43;3.50;;;13.20;70.20;;;;;;4828964;29;20073;-88
2023/10/07 05:11:40;;;;;;;12.10;3.58;;;13.30;70.00;;;;;;4831498;29;20141;-88
2023/10/07 05:14:08;;;;;;;11.63;3.08;;;13.30;69.80;;;;;;4813270;29;20462;-88
2023/10/07 05:16:37;;;;;;;9.27;2.75;;;13.30;70.10;;;;;;4814059;29;20058;-88
2023/10/07 05:19:09;;;;;;;10.13;3.00;;;13.20;70.30;;;;;;4812577;29;20054;-87
2023/10/07 05:21:39;;;;;;;11.77;3.00;;;13.20;70.50;;;;;;4812671;29;20122;-87
2023/10/07 05:24:09;;;;;;;10.07;3.40;;;13.30;70.00;;;;;;4812285;29;20493;-88
2023/10/07 05:26:40;;;;;;;11.20;3.05;;;13.20;70.10;;;;;;4813498;29;21979;-88
2023/10/07 05:29:12;;;;;;;7.20;2.60;;;13.30;70.30;;;;;;4827936;29;20084;-88
2023/10/07 05:31:42;;;;;;;9.23;2.88;;;13.30;70.00;;;;;;4828651;29;20102;-88
2023/10/07 05:34:10;;;;;;;9.77;3.00;;;13.30;70.20;;;;;;4813743;29;20046;-88
2023/10/07 05:36:38;;;;;;;9.70;2.83;;;13.30;70.00;;;;;;4828417;29;20061;-88
2023/10/07 05:39:08;;;;;;;9.73;3.45;;;13.30;69.80;;;;;;4827564;29;20045;-88
2023/10/07 05:41:39;;;;;;;10.15;3.00;;;13.40;69.50;;;;;;4828273;29;20102;-88
2023/10/07 05:44:09;;;;;;;11.68;3.38;;;13.50;69.70;;;;;;4813283;29;20088;-88
2023/10/07 05:46:37;;;;;;;8.13;3.17;;;13.50;69.50;;;;;;4813919;29;20405;-88
2023/10/07 05:49:06;;;;;;;9.18;2.78;;;13.50;69.70;;;;;;4811985;29;20439;-88
2023/10/07 05:51:36;;;;;;;12.05;3.42;;;13.50;69.60;;;;;;4823373;29;20076;-87
2023/10/07 05:54:05;;;;;;;12.55;4.25;;;13.50;69.90;;;;;;4813388;29;20523;-88
2023/10/07 05:56:32;;;;;;;12.10;4.45;;;13.50;69.70;;;;;;4820906;29;20071;-88
2023/10/07 05:59:01;;;;;;;13.93;3.80;;;13.60;69.50;;;;;;4813467;29;20045;-88
2023/10/07 06:01:33;;;;;;;11.40;3.22;;;13.60;69.60;;;;;;4813023;29;20050;-88
2023/10/07 06:04:01;;;;;;;10.93;3.10;;;13.70;69.20;;;;;;4819077;29;20113;-88
2023/10/07 06:06:30;;;;;;;10.15;3.22;;;13.70;68.80;;;;;;4812927;29;20524;-88
2023/10/07 06:09:00;;;;;;;12.00;3.33;;;13.80;69.00;;;;;;4828696;29;20048;-88
2023/10/07 06:11:32;;;;;;;8.97;2.77;;;13.90;68.60;;;;;;4812980;29;20046;-87
2023/10/07 06:13:59;;;;;;;9.13;3.55;;;13.80;68.50;;;;;;4813102;29;20549;-86
2023/10/07 06:16:26;;;;;;;15.98;4.20;;;13.90;68.70;;;;;;4809131;29;20050;-86
2023/10/07 06:18:54;;;;;;;14.07;4.30;;;13.90;68.90;;;;;;4813003;29;20061;-86
2023/10/07 06:21:27;;;;;;;11.07;4.10;;;13.90;68.70;;;;;;4813091;29;20497;-86
2023/10/07 06:23:58;;;;;;;10.90;4.10;;;13.90;69.00;;;;;;4812788;29;20560;-87
2023/10/07 06:26:31;;;;;;;11.88;3.10;;;14.00;68.60;;;;;;4827170;29;20054;-86
2023/10/07 06:29:05;;;;;;;8.80;3.25;;;14.00;67.80;;;;;;4812648;29;20048;-86
2023/10/07 06:31:34;;;;;;;9.45;3.47;;;14.00;67.90;;;;;;4813861;29;20137;-86
2023/10/07 06:34:11;;;;;;;9.63;3.45;;;14.00;68.20;;;;;;4812520;29;20106;-86
2023/10/07 06:36:40;;;;;;;8.13;3.17;;;14.00;67.90;;;;;;4825838;29;20050;-86
2023/10/07 06:39:07;;;;;;;11.35;3.20;;;14.00;68.10;;;;;;4812791;29;20575;-85
2023/10/07 06:41:36;;;;;;;10.93;3.35;;;14.00;68.40;;;;;;4824429;29;20058;-86
2023/10/07 06:44:08;;;;;;;9.82;3.42;;;14.00;68.20;;;;;;4810782;29;20050;-86
2023/10/07 06:46:42;;;;;;;10.13;3.55;;;14.00;67.90;;;;;;4810743;29;20038;-86
2023/10/07 06:49:20;;;;;;;13.53;4.37;;;14.10;67.60;;;;;;4812463;29;20038;-85
2023/10/07 06:51:53;;;;;;;13.77;4.07;;;14.10;68.20;;;;;;4812709;29;20124;-91
2023/10/07 06:54:20;;;;;;;10.15;3.22;;;14.20;68.50;;;;;;4812728;29;20128;-90
2023/10/07 06:56:50;;;;;;;9.10;3.00;;;14.20;67.90;;;;;;4828129;29;20057;-90
2023/10/07 06:59:18;;;;;;;10.77;3.28;;;14.20;68.10;;;;;;4812753;29;20050;-87
2023/10/07 07:04:15;;;;;;;10.02;3.50;;;14.20;68.00;;;;;;4827848;29;20077;-88
2023/10/07 07:06:43;;;;;;;10.48;2.97;;;14.20;68.20;;;;;;4823743;29;20561;-89
2023/10/07 07:11:58;;;;;;;9.27;3.13;;;14.30;68.30;;;;;;4827950;29;20450;-90
2023/10/07 07:14:28;;;;;;;9.80;3.43;;;14.40;68.30;;;;;;4839452;29;20053;-91
2023/10/07 07:16:56;;;;;;;10.18;2.72;;;14.50;68.10;;;;;;4808936;29;20129;-89
2023/10/07 07:19:23;;;;;;;10.38;3.67;;;14.50;68.00;;;;;;4815610;29;20393;-90
2023/10/07 07:21:51;;;;;;;9.00;3.28;;;14.50;67.80;;;;;;4825466;29;20058;-89
2023/10/07 07:24:22;;;;;;;9.68;3.63;;;14.60;68.30;;;;;;4810784;29;20450;-88
2023/10/07 07:26:52;;;;;;;12.73;4.03;;;14.60;67.80;;;;;;4810537;29;20038;-87
2023/10/07 07:29:23;;;;;;;14.32;3.78;;;14.70;68.30;;;;;;4809730;29;20049;-88
2023/10/07 07:31:51;;;;;;;9.77;3.28;;;14.70;70.80;;;;;;4810292;29;20095;-88
2023/10/07 07:34:36;;;;;;;11.13;3.45;;;14.60;70.90;;;;;;4818136;29;20455;-88
2023/10/07 07:37:04;;;;;;;11.85;3.80;;;14.40;71.50;;;;;;4811243;29;20145;-90
2023/10/07 07:39:31;;;;;;;9.33;2.90;;;14.30;72.10;;;;;;4811791;29;20045;-92
2023/10/07 07:42:15;;;;;;;12.70;3.97;;;14.30;71.90;;;;;;4826938;29;20125;-91
2023/10/07 07:44:56;;;;;;;10.77;4.00;;;14.30;71.90;;;;;;4827086;29;20992;-91
2023/10/07 07:47:30;;;;;;;11.98;3.80;;;14.30;71.30;;;;;;4827025;29;20045;-91
2023/10/07 07:50:07;;;;;;;12.30;3.72;;;14.40;71.80;;;;;;4820410;29;20103;-91
2023/10/07 07:52:34;;;;;;;11.40;3.87;;;14.50;71.40;;;;;;4821963;29;20057;-91
2023/10/07 07:55:01;;;;;;;10.60;3.60;;;14.50;71.50;;;;;;4812203;29;20049;-90
2023/10/07 07:57:28;;;;;;;12.23;4.40;;;14.50;71.20;;;;;;4812176;29;20070;-92
2023/10/07 07:59:58;;;;;;;10.73;4.03;;;14.60;70.70;;;;;;4812064;29;20049;-91
2023/10/07 08:02:26;;;;;;;11.93;4.75;;;14.70;70.50;;;;;;4812008;29;20050;-91
2023/10/07 08:05:02;;;;;;;11.03;4.33;;;14.80;71.10;;;;;;4812048;29;20653;-90
2023/10/07 08:07:30;;;;;;;10.02;4.50;;;14.80;70.80;;;;;;4812278;29;20057;-91
2023/10/07 08:10:03;;;;;;;11.73;4.38;;;14.90;69.90;;;;;;4809462;29;20091;-90
2023/10/07 08:12:34;;;;;;;10.07;3.90;;;15.00;69.50;;;;;;4826126;29;20074;-91
2023/10/07 08:17:44;;;;;;;8.70;3.73;;;15.20;69.90;;;;;;4827488;29;20412;-91
2023/10/07 08:20:12;;;;;;;14.10;4.10;;;15.50;68.60;;;;;;4819179;29;20130;-91
2023/10/07 08:22:45;;;;;;;12.35;4.57;;;15.70;69.20;;;;;;4811797;29;20046;-92
2023/10/07 08:25:25;;;;;;;14.20;4.65;;;15.80;68.50;;;;;;4815078;29;20054;-91
2023/10/07 08:27:55;;;;;;;10.32;4.22;;;16.00;68.20;;;;;;4819418;29;20048;-91
2023/10/07 08:33:22;;;;;;;13.02;5.15;;;16.10;68.40;;;;;;4817409;29;20057;-91
2023/10/07 08:35:53;;;;;;;12.82;4.90;;;16.10;67.10;;;;;;4819647;29;20049;-91
2023/10/07 08:38:21;;;;;;;15.85;4.82;;;16.10;67.00;;;;;;4809397;29;20419;-91
2023/10/07 08:40:59;;;;;;;13.10;4.93;;;16.00;67.30;;;;;;4820223;29;20102;-91
2023/10/07 08:43:38;;;;;;;12.53;4.40;;;16.00;67.70;;;;;;4808441;29;20061;-84
2023/10/07 08:46:08;;;;;;;14.70;5.05;;;16.00;68.10;;;;;;4825039;29;20098;-86
2023/10/07 08:48:39;;;;;;;12.25;5.00;;;16.00;67.90;;;;;;4810439;29;20079;-86
2023/10/07 08:51:14;;;;;;;14.07;4.50;;;16.00;68.10;;;;;;4826405;29;20130;-89
2023/10/07 08:53:41;;;;;;;11.88;4.82;;;16.00;67.80;;;;;;4823336;29;20054;-88
2023/10/07 08:56:09;;;;;;;13.43;5.60;;;16.00;67.10;;;;;;4810988;29;20419;-90
2023/10/07 08:58:41;;;;;;;13.90;4.93;;;16.00;68.40;;;;;;4811239;29;20054;-86
2023/10/07 09:01:17;;;;;;;12.45;4.70;;;16.00;68.40;;;;;;4811529;29;20045;-89
2023/10/07 09:03:50;;;;;;;12.40;4.18;;;16.00;68.10;;;;;;4811550;29;20401;-89
2023/10/07 09:06:19;;;;;;;12.70;4.70;;;16.00;68.10;;;;;;4830816;29;20087;-92
2023/10/07 09:08:47;;;;;;;11.27;4.03;;;16.00;68.10;;;;;;4815014;29;20151;-90
2023/10/07 09:11:18;;;;;;;10.65;3.97;;;16.00;68.20;;;;;;4829564;29;20049;-90
2023/10/07 09:13:47;;;;;;;10.88;4.00;;;16.10;67.60;;;;;;4821131;29;20057;-91
2023/10/07 09:16:14;;;;;;;9.85;4.32;;;16.20;68.10;;;;;;4814584;29;20050;-91
2023/10/07 09:18:41;;;;;;;12.30;5.30;;;16.30;67.90;;;;;;4814837;29;20050;-91
2023/10/07 09:21:22;;;;;;;17.13;6.70;;;16.40;68.00;;;;;;4814790;29;20420;-90
2023/10/07 09:23:52;;;;;;;16.27;5.88;;;16.50;68.70;;;;;;4829503;29;20068;-92
2023/10/07 09:26:22;;;;;;;19.42;7.75;;;16.50;68.70;;;;;;4815106;29;20081;-92
2023/10/07 09:28:58;;;;;;;19.70;7.80;;;16.70;68.90;;;;;;4815313;29;20121;-93
2023/10/07 09:31:35;;;;;;;17.10;6.20;;;16.80;68.20;;;;;;4815755;29;20066;-93
2023/10/07 09:34:09;;;;;;;21.57;6.73;;;16.90;68.00;;;;;;4815241;29;20061;-96
2023/10/07 09:36:40;;;;;;;17.70;6.68;;;17.00;69.00;;;;;;4814539;29;20052;-94
2023/10/07 09:41:55;;;;;;;15.00;5.60;;;17.10;68.40;;;;;;4829240;29;20050;-92
2023/10/07 09:44:27;;;;;;;14.45;5.93;;;17.20;67.30;;;;;;4814773;29;20050;-94
2023/10/07 09:46:55;;;;;;;15.57;4.57;;;17.20;66.60;;;;;;4813837;29;20137;-86
2023/10/07 09:49:25;;;;;;;11.05;4.25;;;17.40;66.80;;;;;;4813565;29;20041;-86
2023/10/07 09:52:16;;;;;;;11.00;3.80;;;17.60;65.40;;;;;;4813061;29;20049;-85
2023/10/07 09:55:21;;;;;;;9.45;3.58;;;17.80;64.90;;;;;;4813592;29;20513;-85
2023/10/07 09:57:58;;;;;;;7.82;3.00;;;18.00;65.30;;;;;;4828296;29;20054;-86
2023/10/07 10:00:40;;;;;;;7.17;3.00;;;18.20;63.40;;;;;;4813513;29;20050;-84
2023/10/07 10:03:39;;;;;;;8.10;2.33;;;18.40;63.20;;;;;;4815803;29;20042;-85
2023/10/07 10:06:36;;;;;;;6.97;2.28;;;18.60;61.60;;;;;;4828423;29;20441;-86
2023/10/07 10:09:13;;;;;;;12.27;1.92;;;18.60;61.60;;;;;;4823660;29;20061;-85
2023/10/07 10:11:55;;;;;;;8.65;2.08;;;18.60;60.40;;;;;;4832525;29;20156;-85
2023/10/07 10:14:52;;;;;;;8.60;2.00;;;18.70;60.30;;;;;;4828500;29;20417;-85
2023/10/07 10:17:22;;;;;;;10.38;2.10;;;18.90;60.00;;;;;;4810091;29;20057;-86
2023/10/07 10:20:09;;;;;;;7.13;2.05;;;19.00;59.60;;;;;;4813290;29;20049;-85
2023/10/07 10:22:37;;;;;;;8.90;1.85;;;19.10;60.20;;;;;;4828100;29;20458;-85
2023/10/07 10:25:24;;;;;;;8.27;1.67;;;19.20;59.10;;;;;;4813281;29;20516;-85
2023/10/07 10:28:02;;;;;;;8.40;1.93;;;19.30;58.70;;;;;;4819098;29;20505;-85
2023/10/07 10:30:33;;;;;;;7.90;2.03;;;19.40;59.30;;;;;;4815879;29;20041;-85
2023/10/07 10:33:07;;;;;;;8.25;2.40;;;19.40;59.40;;;;;;4813124;29;20149;-86
2023/10/07 10:35:40;;;;;;;7.28;1.80;;;19.40;57.90;;;;;;4828495;29;20046;-85
2023/10/07 10:38:09;;;;;;;9.07;2.00;;;19.30;57.80;;;;;;4814781;29;20586;-85
2023/10/07 10:40:37;;;;;;;9.23;2.10;;;19.30;57.80;;;;;;4813036;29;20113;-86
2023/10/07 10:43:04;;;;;;;7.47;2.60;;;19.20;57.40;;;;;;4818771;29;20049;-85
2023/10/07 10:45:31;;;;;;;7.38;2.22;;;19.20;59.00;;;;;;4813215;29;20119;-86
2023/10/07 10:47:59;;;;;;;7.70;1.98;;;19.10;59.00;;;;;;4812701;29;20046;-86
2023/10/07 10:50:29;;;;;;;7.00;2.05;;;19.30;58.90;;;;;;4812667;29;20050;-85
2023/10/07 10:52:59;;;;;;;7.50;1.80;;;19.40;59.00;;;;;;4818238;29;20049;-86
2023/10/07 10:55:38;;;;;;;8.02;2.13;;;19.40;57.80;;;;;;4827713;29;20563;-85
2023/10/07 10:58:18;;;;;;;11.25;2.25;;;19.40;57.70;;;;;;4827574;29;20056;-85
2023/10/07 11:00:51;;;;;;;7.72;1.98;;;19.50;57.40;;;;;;4827700;29;20151;-86
2023/10/07 11:03:20;;;;;;;8.88;2.40;;;19.60;57.40;;;;;;4819949;29;20051;-86
2023/10/07 11:05:51;;;;;;;7.43;2.10;;;19.60;57.30;;;;;;4812448;29;20057;-86
2023/10/07 11:08:24;;;;;;;8.07;1.98;;;19.70;56.80;;;;;;4812517;29;20050;-86
2023/10/07 11:10:58;;;;;;;7.75;2.22;;;20.00;56.70;;;;;;4820249;29;20132;-86
2023/10/07 11:13:28;;;;;;;9.38;2.33;;;20.10;56.30;;;;;;4811598;29;20061;-86
2023/10/07 11:16:09;;;;;;;7.30;2.30;;;20.10;56.10;;;;;;4812263;29;20102;-86
2023/10/07 11:18:44;;;;;;;8.30;2.00;;;20.10;56.50;;;;;;4812188;29;20520;-86
2023/10/07 11:21:14;;;;;;;8.00;2.17;;;20.10;55.30;;;;;;4829023;29;20062;-86
2023/10/07 11:23:50;;;;;;;9.25;2.33;;;20.30;55.20;;;;;;4811715;29;20065;-87
2023/10/07 11:26:17;;;;;;;9.82;2.30;;;20.30;55.60;;;;;;4811946;29;20114;-86
2023/10/07 11:28:44;;;;;;;9.00;2.15;;;20.20;54.70;;;;;;4811477;29;20113;-86
2023/10/07 11:31:11;;;;;;;10.13;2.20;;;20.10;55.10;;;;;;4812237;29;20508;-86
2023/10/07 11:33:51;;;;;;;7.85;2.40;;;20.10;55.50;;;;;;4811935;29;20058;-86
2023/10/07 11:36:19;;;;;;;6.10;1.92;;;20.10;56.30;;;;;;4827222;29;20045;-86
2023/10/07 11:38:46;;;;;;;8.27;2.15;;;20.20;55.00;;;;;;4811714;29;20050;-86
2023/10/07 11:41:16;;;;;;;10.35;2.63;;;20.10;53.70;;;;;;4811571;29;20501;-87
2023/10/07 11:43:44;;;;;;;9.33;2.40;;;20.20;54.20;;;;;;4822212;29;20054;-86
2023/10/07 11:46:13;;;;;;;8.48;2.53;;;20.20;53.60;;;;;;4812055;29;20078;-86
2023/10/07 11:48:44;;;;;;;8.48;1.95;;;20.30;53.00;;;;;;4811990;29;20582;-86
2023/10/07 11:51:11;;;;;;;9.23;2.42;;;20.40;53.10;;;;;;4826748;29;20083;-86
2023/10/07 11:53:41;;;;;;;8.30;2.45;;;20.50;54.20;;;;;;4811175;29;20523;-86
2023/10/07 11:56:12;;;;;;;8.33;2.40;;;20.50;54.30;;;;;;4811488;29;20575;-86
2023/10/07 11:58:39;;;;;;;12.13;2.80;;;20.50;54.40;;;;;;4806303;29;20099;-88
2023/10/07 12:01:07;;;;;;;8.75;2.42;;;20.40;53.10;;;;;;4809914;29;20437;-85
2023/10/07 12:03:35;;;;;;;9.95;2.50;;;20.40;54.30;;;;;;4825007;29;20046;-85
2023/10/07 12:06:05;;;;;;;9.98;2.40;;;20.40;53.80;;;;;;4810235;29;20042;-85
2023/10/07 12:08:34;;;;;;;10.87;2.63;;;20.30;52.80;;;;;;4824037;29;20493;-84
2023/10/07 12:11:04;;;;;;;9.50;2.50;;;20.10;52.80;;;;;;4810633;29;20050;-84
2023/10/07 12:13:35;;;;;;;9.23;2.95;;;20.10;54.40;;;;;;4825125;29;20136;-85
2023/10/07 12:16:02;;;;;;;7.55;2.22;;;20.30;53.90;;;;;;4811575;29;20050;-85
2023/10/07 12:18:32;;;;;;;8.65;2.25;;;20.40;53.50;;;;;;4810857;29;20054;-85
2023/10/07 12:21:04;;;;;;;8.70;2.30;;;20.50;53.40;;;;;;4810923;29;20501;-85
2023/10/07 12:23:33;;;;;;;11.13;2.60;;;20.50;53.20;;;;;;4810543;29;20144;-85
2023/10/07 12:26:01;;;;;;;13.90;2.58;;;20.60;53.00;;;;;;4810080;29;20400;-86
2023/10/07 12:28:30;;;;;;;9.07;2.67;;;20.60;53.60;;;;;;4811097;29;20061;-85
2023/10/07 12:30:58;;;;;;;8.70;2.80;;;20.60;53.10;;;;;;4811009;29;20102;-85
2023/10/07 12:33:26;;;;;;;10.83;2.70;;;20.60;51.60;;;;;;4825746;29;20046;-84
2023/10/07 12:36:14;;;;;;;9.23;2.58;;;20.70;51.80;;;;;;4825464;29;20053;-85
2023/10/07 12:38:42;;;;;;;7.78;2.03;;;20.80;52.40;;;;;;4826140;29;20048;-85
2023/10/07 12:41:09;;;;;;;8.55;2.63;;;20.80;53.20;;;;;;4813827;29;20050;-85
2023/10/07 12:43:37;;;;;;;8.40;2.38;;;21.00;52.60;;;;;;4817446;29;20492;-85
2023/10/07 12:46:09;;;;;;;9.40;2.27;;;21.00;51.70;;;;;;4812855;29;20050;-86
2023/10/07 12:48:39;;;;;;;10.32;2.35;;;21.10;52.60;;;;;;4829452;29;20057;-85
2023/10/07 12:51:08;;;;;;;8.32;2.60;;;21.10;51.90;;;;;;4814145;29;20182;-86
2023/10/07 12:53:35;;;;;;;7.43;2.35;;;21.20;52.00;;;;;;4814322;29;20054;-86
2023/10/07 12:56:13;;;;;;;10.23;2.80;;;21.20;50.60;;;;;;4812946;29;20057;-85
2023/10/07 12:58:42;;;;;;;8.63;2.50;;;21.30;51.40;;;;;;4828794;29;20086;-88
2023/10/07 13:01:12;;;;;;;8.38;2.30;;;21.50;51.10;;;;;;4814782;29;20053;-87
2023/10/07 13:03:43;;;;;;;8.02;2.00;;;21.60;50.90;;;;;;4814847;29;20050;-88
2023/10/07 13:06:14;;;;;;;8.63;2.38;;;21.60;51.10;;;;;;4814988;29;20492;-88
2023/10/07 13:08:43;;;;;;;9.27;2.85;;;21.40;50.00;;;;;;4814880;29;20069;-88
2023/10/07 13:11:13;;;;;;;8.63;2.50;;;21.30;50.60;;;;;;4814603;29;20053;-88
2023/10/07 13:13:42;;;;;;;10.43;2.40;;;21.10;52.10;;;;;;4829518;29;20149;-88
2023/10/07 13:16:13;;;;;;;8.65;2.35;;;21.10;51.30;;;;;;4814487;29;20054;-88
2023/10/07 13:18:42;;;;;;;9.27;2.20;;;21.10;52.30;;;;;;4829614;29;20145;-88
2023/10/07 13:21:18;;;;;;;8.02;2.20;;;21.00;52.30;;;;;;4814345;29;20527;-87
2023/10/07 13:23:47;;;;;;;8.47;2.50;;;20.80;52.20;;;;;;4814683;29;20056;-87
2023/10/07 13:26:14;;;;;;;9.77;2.28;;;20.60;53.40;;;;;;4814546;29;20553;-88
2023/10/07 13:28:42;;;;;;;7.05;1.95;;;20.50;54.10;;;;;;4829773;29;20645;-87
2023/10/07 13:31:10;;;;;;;8.25;2.33;;;20.50;53.80;;;;;;4814383;29;20042;-88
2023/10/07 13:33:38;;;;;;;7.88;2.53;;;20.40;54.40;;;;;;4814321;29;20152;-88
2023/10/07 13:36:08;;;;;;;7.27;2.23;;;20.30;54.80;;;;;;4814648;29;20046;-87
2023/10/07 13:38:36;;;;;;;8.23;2.17;;;20.20;55.30;;;;;;4814199;29;20097;-87
2023/10/07 13:41:27;;;;;;;8.80;2.38;;;20.10;55.60;;;;;;4814520;29;20053;-88
2023/10/07 13:44:04;;;;;;;9.38;2.20;;;20.10;55.30;;;;;;4810916;29;20074;-87
2023/10/07 13:46:31;;;;;;;10.18;2.47;;;20.00;55.90;;;;;;4829113;29;20114;-86
2023/10/07 13:48:58;;;;;;;8.83;2.10;;;20.00;56.10;;;;;;4814081;29;20057;-86